Terminal Aerodrome Forecast
Issued by NWS

Current Version | Previous Version | Graphics & Text | Print | Product List | Glossary On
Versions: 1 2 3 4 5 6 7 8 9 10 11 12 13 14 15 16 17 18 19 20 21 22 23 24 25
000
FTUS41 KRLX 021142
TAFCKB
TAF
KCKB 021142Z 0212/0312 00000KT 2SM BR SCT005
      TEMPO 0212/0213 3SM BR
     FM021300 VRB04KT 5SM HZ SCT035
     FM021430 VRB04KT P6SM SCT035
     FM030200 VRB03KT 3SM BR BKN040=

USA.gov is the U.S. government's official web portal to all federal, state and local government web resources and services.